sensor_id;sensor_type;location;lat;lon;timestamp;pressure;altitude;pressure_sealevel;temperature;humidity
22651;BME280;11492;42.646;23.400;2023-01-25T00:01:34;96172.59;;;3.39;75.62
22651;BME280;11492;42.646;23.400;2023-01-25T00:04:00;96170.19;;;3.38;74.81
22651;BME280;11492;42.646;23.400;2023-01-25T00:06:25;96175.28;;;3.38;74.85
22651;BME280;11492;42.646;23.400;2023-01-25T00:08:51;96180.25;;;3.39;75.72
22651;BME280;11492;42.646;23.400;2023-01-25T00:11:16;96180.88;;;3.43;76.39
22651;BME280;11492;42.646;23.400;2023-01-25T00:13:42;96174.03;;;3.43;76.06
22651;BME280;11492;42.646;23.400;2023-01-25T00:16:08;96178.41;;;3.41;76.44
22651;BME280;11492;42.646;23.400;2023-01-25T00:18:35;96176.09;;;3.38;75.87
22651;BME280;11492;42.646;23.400;2023-01-25T00:21:14;96168.06;;;3.32;76.90
22651;BME280;11492;42.646;23.400;2023-01-25T00:23:40;96160.06;;;3.36;76.59
22651;BME280;11492;42.646;23.400;2023-01-25T00:26:05;96170.06;;;3.39;76.77
22651;BME280;11492;42.646;23.400;2023-01-25T00:28:31;96170.88;;;3.40;76.85
22651;BME280;11492;42.646;23.400;2023-01-25T00:31:03;96167.72;;;3.36;75.64
22651;BME280;11492;42.646;23.400;2023-01-25T00:33:51;96166.81;;;3.37;75.86
22651;BME280;11492;42.646;23.400;2023-01-25T00:36:27;96162.84;;;3.33;77.21
22651;BME280;11492;42.646;23.400;2023-01-25T00:38:56;96157.84;;;3.32;77.28
22651;BME280;11492;42.646;23.400;2023-01-25T00:41:22;96170.63;;;3.32;76.72
22651;BME280;11492;42.646;23.400;2023-01-25T00:43:48;96169.81;;;3.31;76.34
22651;BME280;11492;42.646;23.400;2023-01-25T00:46:14;96173.66;;;3.37;76.91
22651;BME280;11492;42.646;23.400;2023-01-25T00:48:41;96172.13;;;3.34;75.79
22651;BME280;11492;42.646;23.400;2023-01-25T00:51:06;96168.75;;;3.34;76.58
22651;BME280;11492;42.646;23.400;2023-01-25T00:53:32;96176.78;;;3.40;76.75
22651;BME280;11492;42.646;23.400;2023-01-25T00:55:58;96175.03;;;3.41;76.19
22651;BME280;11492;42.646;23.400;2023-01-25T00:58:23;96177.09;;;3.36;75.88
22651;BME280;11492;42.646;23.400;2023-01-25T01:00:49;96166.91;;;3.36;75.52
22651;BME280;11492;42.646;23.400;2023-01-25T01:03:15;96170.63;;;3.32;75.71
22651;BME280;11492;42.646;23.400;2023-01-25T01:05:41;96175.47;;;3.35;76.29
22651;BME280;11492;42.646;23.400;2023-01-25T01:08:06;96173.16;;;3.32;76.75
22651;BME280;11492;42.646;23.400;2023-01-25T01:10:32;96174.91;;;3.31;76.16
22651;BME280;11492;42.646;23.400;2023-01-25T01:12:57;96170.63;;;3.32;75.53
22651;BME280;11492;42.646;23.400;2023-01-25T01:15:22;96166.84;;;3.25;75.45
22651;BME280;11492;42.646;23.400;2023-01-25T01:17:48;96176.84;;;3.28;75.60
22651;BME280;11492;42.646;23.400;2023-01-25T01:20:13;96174.19;;;3.29;75.80
22651;BME280;11492;42.646;23.400;2023-01-25T01:22:39;96170.00;;;3.28;75.94
22651;BME280;11492;42.646;23.400;2023-01-25T01:25:04;96164.53;;;3.22;76.58
22651;BME280;11492;42.646;23.400;2023-01-25T01:27:30;96163.38;;;3.26;75.66
22651;BME280;11492;42.646;23.400;2023-01-25T01:29:55;96169.38;;;3.25;75.00
22651;BME280;11492;42.646;23.400;2023-01-25T01:32:21;96164.09;;;3.28;75.74
22651;BME280;11492;42.646;23.400;2023-01-25T01:34:46;96159.91;;;3.27;75.74
22651;BME280;11492;42.646;23.400;2023-01-25T01:37:11;96158.75;;;3.31;74.75
22651;BME280;11492;42.646;23.400;2023-01-25T01:39:37;96157.13;;;3.30;75.67
22651;BME280;11492;42.646;23.400;2023-01-25T01:42:02;96152.25;;;3.27;75.86
22651;BME280;11492;42.646;23.400;2023-01-25T01:44:45;96152.25;;;3.27;74.96
22651;BME280;11492;42.646;23.400;2023-01-25T01:47:14;96144.56;;;3.16;74.90
22651;BME280;11492;42.646;23.400;2023-01-25T01:49:46;96145.88;;;3.09;75.13
22651;BME280;11492;42.646;23.400;2023-01-25T01:52:15;96150.88;;;3.11;75.89
22651;BME280;11492;42.646;23.400;2023-01-25T01:54:45;96147.03;;;3.05;74.91
22651;BME280;11492;42.646;23.400;2023-01-25T01:57:19;96153.03;;;3.04;74.32
22651;BME280;11492;42.646;23.400;2023-01-25T02:00:04;96148.84;;;3.03;74.22
22651;BME280;11492;42.646;23.400;2023-01-25T02:02:30;96151.41;;;3.03;74.50
22651;BME280;11492;42.646;23.400;2023-01-25T02:05:00;96151.63;;;3.00;74.99
22651;BME280;11492;42.646;23.400;2023-01-25T02:07:32;96148.16;;;3.01;74.65
22651;BME280;11492;42.646;23.400;2023-01-25T02:09:59;96152.75;;;2.97;75.04
22651;BME280;11492;42.646;23.400;2023-01-25T02:12:25;96153.47;;;2.98;75.03
22651;BME280;11492;42.646;23.400;2023-01-25T02:14:52;96154.19;;;3.00;74.64
22651;BME280;11492;42.646;23.400;2023-01-25T02:17:37;96149.47;;;2.95;73.59
22651;BME280;11492;42.646;23.400;2023-01-25T02:20:28;96149.72;;;2.92;74.67
22651;BME280;11492;42.646;23.400;2023-01-25T02:23:02;96152.03;;;2.95;74.66
22651;BME280;11492;42.646;23.400;2023-01-25T02:25:31;96146.25;;;2.93;74.53
22651;BME280;11492;42.646;23.400;2023-01-25T02:28:01;96158.88;;;2.94;75.45
22651;BME280;11492;42.646;23.400;2023-01-25T02:30:29;96154.81;;;2.92;75.44
22651;BME280;11492;42.646;23.400;2023-01-25T02:32:55;96156.31;;;2.94;74.82
22651;BME280;11492;42.646;23.400;2023-01-25T02:35:36;96142.88;;;2.92;75.48
22651;BME280;11492;42.646;23.400;2023-01-25T02:38:03;96142.56;;;2.97;75.00
22651;BME280;11492;42.646;23.400;2023-01-25T02:40:30;96146.03;;;2.96;74.84
22651;BME280;11492;42.646;23.400;2023-01-25T02:42:57;96148.66;;;2.94;74.96
22651;BME280;11492;42.646;23.400;2023-01-25T02:45:24;96142.75;;;2.94;74.24
22651;BME280;11492;42.646;23.400;2023-01-25T02:47:52;96137.06;;;2.90;74.63
22651;BME280;11492;42.646;23.400;2023-01-25T02:50:17;96136.25;;;2.90;75.03
22651;BME280;11492;42.646;23.400;2023-01-25T02:52:43;96146.44;;;2.90;75.40
22651;BME280;11492;42.646;23.400;2023-01-25T02:55:09;96139.72;;;2.89;76.40
22651;BME280;11492;42.646;23.400;2023-01-25T02:57:34;96152.03;;;2.95;75.94
22651;BME280;11492;42.646;23.400;2023-01-25T02:59:59;96143.19;;;2.88;75.12
22651;BME280;11492;42.646;23.400;2023-01-25T03:02:25;96144.53;;;2.81;75.68
22651;BME280;11492;42.646;23.400;2023-01-25T03:04:50;96155.94;;;2.88;76.50
22651;BME280;11492;42.646;23.400;2023-01-25T03:07:16;96148.41;;;2.86;75.59
22651;BME280;11492;42.646;23.400;2023-01-25T03:09:41;96146.78;;;2.85;75.40
22651;BME280;11492;42.646;23.400;2023-01-25T03:12:06;96150.75;;;2.77;75.95
22651;BME280;11492;42.646;23.400;2023-01-25T03:14:32;96147.28;;;2.78;75.43
22651;BME280;11492;42.646;23.400;2023-01-25T03:16:57;96154.22;;;2.76;75.25
22651;BME280;11492;42.646;23.400;2023-01-25T03:19:23;96149.56;;;2.70;75.50
22651;BME280;11492;42.646;23.400;2023-01-25T03:21:48;96153.50;;;2.74;76.28
22651;BME280;11492;42.646;23.400;2023-01-25T03:24:13;96146.28;;;2.68;75.54
22651;BME280;11492;42.646;23.400;2023-01-25T03:26:39;96146.50;;;2.65;75.95
22651;BME280;11492;42.646;23.400;2023-01-25T03:29:23;96140.50;;;2.66;76.40
22651;BME280;11492;42.646;23.400;2023-01-25T03:31:48;96134.47;;;2.67;75.84
22651;BME280;11492;42.646;23.400;2023-01-25T03:34:14;96141.00;;;2.71;76.26
22651;BME280;11492;42.646;23.400;2023-01-25T03:36:39;96133.34;;;2.71;75.94
22651;BME280;11492;42.646;23.400;2023-01-25T03:39:05;96139.75;;;2.76;75.87
22651;BME280;11492;42.646;23.400;2023-01-25T03:41:30;96145.78;;;2.75;75.66
22651;BME280;11492;42.646;23.400;2023-01-25T03:43:55;96149.94;;;2.76;74.84
22651;BME280;11492;42.646;23.400;2023-01-25T03:46:21;96137.31;;;2.75;75.22
22651;BME280;11492;42.646;23.400;2023-01-25T03:48:46;96138.31;;;2.72;75.72
22651;BME280;11492;42.646;23.400;2023-01-25T03:51:11;96138.44;;;2.71;75.37
22651;BME280;11492;42.646;23.400;2023-01-25T03:53:37;96133.47;;;2.70;76.01
22651;BME280;11492;42.646;23.400;2023-01-25T03:56:07;96135.88;;;2.71;75.93
22651;BME280;11492;42.646;23.400;2023-01-25T03:58:35;96130.56;;;2.74;74.95
22651;BME280;11492;42.646;23.400;2023-01-25T04:01:01;96124.47;;;2.76;76.08
22651;BME280;11492;42.646;23.400;2023-01-25T04:03:28;96132.59;;;2.81;75.07
22651;BME280;11492;42.646;23.400;2023-01-25T04:05:54;96136.09;;;2.80;74.60
22651;BME280;11492;42.646;23.400;2023-01-25T04:08:21;96124.84;;;2.83;75.02
22651;BME280;11492;42.646;23.400;2023-01-25T04:10:54;96131.47;;;2.85;74.25
22651;BME280;11492;42.646;23.400;2023-01-25T04:13:22;96132.19;;;2.87;73.96
22651;BME280;11492;42.646;23.400;2023-01-25T04:15:48;96124.97;;;2.81;74.37
22651;BME280;11492;42.646;23.400;2023-01-25T04:18:14;96132.72;;;2.80;74.73
22651;BME280;11492;42.646;23.400;2023-01-25T04:20:39;96124.84;;;2.83;73.65
22651;BME280;11492;42.646;23.400;2023-01-25T04:23:06;96116.19;;;2.85;73.26
22651;BME280;11492;42.646;23.400;2023-01-25T04:25:32;96119.06;;;2.81;73.54
22651;BME280;11492;42.646;23.400;2023-01-25T04:27:57;96133.22;;;2.85;73.61
22651;BME280;11492;42.646;23.400;2023-01-25T04:30:23;96124.91;;;2.94;73.45
22651;BME280;11492;42.646;23.400;2023-01-25T04:32:48;96129.50;;;3.01;73.77
22651;BME280;11492;42.646;23.400;2023-01-25T04:35:14;96137.03;;;3.02;72.58
22651;BME280;11492;42.646;23.400;2023-01-25T04:37:39;96130.31;;;3.01;72.16
22651;BME280;11492;42.646;23.400;2023-01-25T04:40:05;96142.56;;;2.97;71.72
22651;BME280;11492;42.646;23.400;2023-01-25T04:42:31;96143.69;;;2.93;70.98
22651;BME280;11492;42.646;23.400;2023-01-25T04:44:56;96145.03;;;2.86;71.97
22651;BME280;11492;42.646;23.400;2023-01-25T04:47:22;96142.81;;;2.81;71.55
22651;BME280;11492;42.646;23.400;2023-01-25T04:49:47;96144.53;;;2.69;71.26
22651;BME280;11492;42.646;23.400;2023-01-25T04:52:13;96141.41;;;2.65;72.32
22651;BME280;11492;42.646;23.400;2023-01-25T04:54:38;96142.34;;;2.64;71.92
22651;BME280;11492;42.646;23.400;2023-01-25T04:57:03;96141.00;;;2.71;72.71
22651;BME280;11492;42.646;23.400;2023-01-25T04:59:29;96142.31;;;2.76;71.87
22651;BME280;11492;42.646;23.400;2023-01-25T05:01:55;96138.72;;;2.79;72.95
22651;BME280;11492;42.646;23.400;2023-01-25T05:04:20;96138.72;;;2.79;72.27
22651;BME280;11492;42.646;23.400;2023-01-25T05:06:45;96135.97;;;2.82;72.81
22651;BME280;11492;42.646;23.400;2023-01-25T05:09:11;96134.22;;;2.82;71.85
22651;BME280;11492;42.646;23.400;2023-01-25T05:11:36;96131.78;;;2.81;72.27
22651;BME280;11492;42.646;23.400;2023-01-25T05:14:02;96137.47;;;2.84;71.66
22651;BME280;11492;42.646;23.400;2023-01-25T05:16:27;96126.69;;;2.81;71.98
22651;BME280;11492;42.646;23.400;2023-01-25T05:18:55;96127.09;;;2.87;71.88
22651;BME280;11492;42.646;23.400;2023-01-25T05:21:21;96126.47;;;2.84;71.67
22651;BME280;11492;42.646;23.400;2023-01-25T05:24:05;96130.88;;;2.82;73.11
22651;BME280;11492;42.646;23.400;2023-01-25T05:26:31;96131.56;;;2.84;72.55
22651;BME280;11492;42.646;23.400;2023-01-25T05:29:14;96128.94;;;2.85;73.36
22651;BME280;11492;42.646;23.400;2023-01-25T05:31:40;96130.56;;;2.86;72.46
22651;BME280;11492;42.646;23.400;2023-01-25T05:34:05;96138.09;;;2.88;73.06
22651;BME280;11492;42.646;23.400;2023-01-25T05:36:31;96132.56;;;2.94;71.82
22651;BME280;11492;42.646;23.400;2023-01-25T05:38:56;96131.25;;;2.88;72.46
22651;BME280;11492;42.646;23.400;2023-01-25T05:41:21;96133.50;;;2.93;72.67
22651;BME280;11492;42.646;23.400;2023-01-25T05:43:48;96132.28;;;2.86;71.40
22651;BME280;11492;42.646;23.400;2023-01-25T05:46:13;96139.94;;;2.86;72.27
22651;BME280;11492;42.646;23.400;2023-01-25T05:48:39;96143.63;;;2.82;72.87
22651;BME280;11492;42.646;23.400;2023-01-25T05:51:04;96136.16;;;2.79;72.98
22651;BME280;11492;42.646;23.400;2023-01-25T05:53:30;96140.75;;;2.74;73.60
22651;BME280;11492;42.646;23.400;2023-01-25T05:55:55;96138.72;;;2.79;72.73
22651;BME280;11492;42.646;23.400;2023-01-25T05:58:21;96139.88;;;2.75;72.36
22651;BME280;11492;42.646;23.400;2023-01-25T06:00:46;96144.84;;;2.76;72.71
22651;BME280;11492;42.646;23.400;2023-01-25T06:03:12;96146.66;;;2.87;73.12
22651;BME280;11492;42.646;23.400;2023-01-25T06:05:37;96135.53;;;2.88;73.54
22651;BME280;11492;42.646;23.400;2023-01-25T06:08:02;96138.78;;;2.90;73.89
22651;BME280;11492;42.646;23.400;2023-01-25T06:10:28;96140.38;;;2.80;72.62
22651;BME280;11492;42.646;23.400;2023-01-25T06:12:57;96135.16;;;2.81;72.69
22651;BME280;11492;42.646;23.400;2023-01-25T06:15:24;96143.19;;;2.88;71.75
22651;BME280;11492;42.646;23.400;2023-01-25T06:17:53;96148.28;;;2.88;72.14
22651;BME280;11492;42.646;23.400;2023-01-25T06:20:19;96150.41;;;2.94;72.66
22651;BME280;11492;42.646;23.400;2023-01-25T06:22:49;96151.94;;;2.96;72.70
22651;BME280;11492;42.646;23.400;2023-01-25T06:25:14;96148.47;;;2.97;72.91
22651;BME280;11492;42.646;23.400;2023-01-25T06:27:40;96150.09;;;2.98;72.49
22651;BME280;11492;42.646;23.400;2023-01-25T06:30:06;96153.25;;;3.01;72.11
22651;BME280;11492;42.646;23.400;2023-01-25T06:32:32;96156.13;;;2.97;71.74
22651;BME280;11492;42.646;23.400;2023-01-25T06:34:57;96154.28;;;2.99;72.66
22651;BME280;11492;42.646;23.400;2023-01-25T06:37:23;96156.63;;;2.90;73.16
22651;BME280;11492;42.646;23.400;2023-01-25T06:39:48;96149.47;;;2.95;72.23
22651;BME280;11492;42.646;23.400;2023-01-25T06:42:14;96154.38;;;2.97;72.49
22651;BME280;11492;42.646;23.400;2023-01-25T06:44:39;96156.25;;;2.96;72.15
22651;BME280;11492;42.646;23.400;2023-01-25T06:47:07;96148.91;;;2.91;72.84
22651;BME280;11492;42.646;23.400;2023-01-25T06:49:33;96148.78;;;2.93;72.54
22651;BME280;11492;42.646;23.400;2023-01-25T06:51:58;96154.44;;;2.85;73.12
22651;BME280;11492;42.646;23.400;2023-01-25T06:54:25;96149.31;;;2.85;72.33
22651;BME280;11492;42.646;23.400;2023-01-25T06:56:50;96153.78;;;2.94;72.79
22651;BME280;11492;42.646;23.400;2023-01-25T06:59:16;96152.03;;;2.95;72.66
22651;BME280;11492;42.646;23.400;2023-01-25T07:01:41;96150.78;;;3.00;72.40
22651;BME280;11492;42.646;23.400;2023-01-25T07:04:07;96154.38;;;2.97;72.14
22651;BME280;11492;42.646;23.400;2023-01-25T07:06:33;96151.13;;;2.96;72.63
22651;BME280;11492;42.646;23.400;2023-01-25T07:09:06;96155.63;;;2.92;71.85
22651;BME280;11492;42.646;23.400;2023-01-25T07:11:33;96151.53;;;2.90;71.97
22651;BME280;11492;42.646;23.400;2023-01-25T07:13:58;96143.69;;;2.93;72.29
22651;BME280;11492;42.646;23.400;2023-01-25T07:16:24;96147.06;;;2.93;72.73
22651;BME280;11492;42.646;23.400;2023-01-25T07:18:50;96150.41;;;2.94;72.20
22651;BME280;11492;42.646;23.400;2023-01-25T07:21:17;96152.25;;;2.92;72.00
22651;BME280;11492;42.646;23.400;2023-01-25T07:23:45;96148.78;;;2.93;72.82
22651;BME280;11492;42.646;23.400;2023-01-25T07:26:16;96157.97;;;2.95;72.91
22651;BME280;11492;42.646;23.400;2023-01-25T07:28:42;96159.47;;;2.97;72.69
22651;BME280;11492;42.646;23.400;2023-01-25T07:31:08;96166.31;;;2.97;73.37
22651;BME280;11492;42.646;23.400;2023-01-25T07:33:34;96163.66;;;2.98;72.92
22651;BME280;11492;42.646;23.400;2023-01-25T07:36:04;96154.59;;;2.95;72.76
22651;BME280;11492;42.646;23.400;2023-01-25T07:38:30;96156.31;;;2.94;73.12
22651;BME280;11492;42.646;23.400;2023-01-25T07:40:56;96147.66;;;2.97;73.52
22651;BME280;11492;42.646;23.400;2023-01-25T07:43:22;96160.41;;;2.97;73.43
22651;BME280;11492;42.646;23.400;2023-01-25T07:45:47;96161.09;;;2.98;73.42
22651;BME280;11492;42.646;23.400;2023-01-25T07:48:14;96164.38;;;3.00;73.16
22651;BME280;11492;42.646;23.400;2023-01-25T07:50:40;96166.31;;;2.97;74.11
22651;BME280;11492;42.646;23.400;2023-01-25T07:53:08;96162.72;;;2.99;73.80
22651;BME280;11492;42.646;23.400;2023-01-25T07:55:34;96164.03;;;3.05;74.29
22651;BME280;11492;42.646;23.400;2023-01-25T07:57:59;96159.06;;;3.03;74.60
22651;BME280;11492;42.646;23.400;2023-01-25T08:00:25;96165.09;;;3.02;73.73
22651;BME280;11492;42.646;23.400;2023-01-25T08:02:51;96163.47;;;3.01;74.80
22651;BME280;11492;42.646;23.400;2023-01-25T08:05:17;96162.09;;;3.08;75.10
22651;BME280;11492;42.646;23.400;2023-01-25T08:07:44;96153.75;;;3.06;74.19
22651;BME280;11492;42.646;23.400;2023-01-25T08:10:10;96155.06;;;3.12;73.94
22651;BME280;11492;42.646;23.400;2023-01-25T08:12:35;96155.56;;;3.17;74.58
22651;BME280;11492;42.646;23.400;2023-01-25T08:15:01;96158.00;;;3.18;74.55
22651;BME280;11492;42.646;23.400;2023-01-25T08:17:26;96155.25;;;3.21;74.31
22651;BME280;11492;42.646;23.400;2023-01-25T08:19:59;96151.28;;;3.17;74.71
22651;BME280;11492;42.646;23.400;2023-01-25T08:22:26;96152.56;;;3.22;74.46
22651;BME280;11492;42.646;23.400;2023-01-25T08:24:52;96153.88;;;3.28;74.59
22651;BME280;11492;42.646;23.400;2023-01-25T08:27:18;96155.72;;;3.26;74.07
22651;BME280;11492;42.646;23.400;2023-01-25T08:29:43;96148.53;;;3.31;74.25
22651;BME280;11492;42.646;23.400;2023-01-25T08:32:09;96145.31;;;3.29;74.29
22651;BME280;11492;42.646;23.400;2023-01-25T08:34:34;96152.63;;;3.33;74.26
22651;BME280;11492;42.646;23.400;2023-01-25T08:36:59;96146.22;;;3.28;74.33
22651;BME280;11492;42.646;23.400;2023-01-25T08:39:25;96144.06;;;3.34;74.25
22651;BME280;11492;42.646;23.400;2023-01-25T08:41:50;96144.34;;;3.42;74.90
22651;BME280;11492;42.646;23.400;2023-01-25T08:44:17;96144.44;;;3.41;73.48
22651;BME280;11492;42.646;23.400;2023-01-25T08:46:46;96148.22;;;3.35;74.63
22651;BME280;11492;42.646;23.400;2023-01-25T08:49:12;96136.72;;;3.30;74.76
22651;BME280;11492;42.646;23.400;2023-01-25T08:51:37;96129.56;;;3.35;75.44
22651;BME280;11492;42.646;23.400;2023-01-25T08:54:07;96133.38;;;3.52;75.77
22651;BME280;11492;42.646;23.400;2023-01-25T08:56:39;96136.72;;;3.53;74.94
22651;BME280;11492;42.646;23.400;2023-01-25T08:59:04;96137.53;;;3.53;75.01
22651;BME280;11492;42.646;23.400;2023-01-25T09:01:30;96146.34;;;3.49;75.08
22651;BME280;11492;42.646;23.400;2023-01-25T09:03:56;96141.22;;;3.49;74.74
22651;BME280;11492;42.646;23.400;2023-01-25T09:06:22;96128.03;;;3.55;74.57
22651;BME280;11492;42.646;23.400;2023-01-25T09:08:47;96142.81;;;3.63;75.62
22651;BME280;11492;42.646;23.400;2023-01-25T09:11:17;96138.84;;;3.59;75.22
22651;BME280;11492;42.646;23.400;2023-01-25T09:13:43;96132.25;;;3.67;75.33
22651;BME280;11492;42.646;23.400;2023-01-25T09:16:12;96126.13;;;3.70;74.54
22651;BME280;11492;42.646;23.400;2023-01-25T09:18:40;96119.47;;;3.67;74.61
22651;BME280;11492;42.646;23.400;2023-01-25T09:21:08;96118.91;;;3.64;75.69
22651;BME280;11492;42.646;23.400;2023-01-25T09:23:34;96123.19;;;3.63;75.80
22651;BME280;11492;42.646;23.400;2023-01-25T09:26:00;96122.72;;;3.58;74.65
22651;BME280;11492;42.646;23.400;2023-01-25T09:28:27;96119.94;;;3.61;74.49
22651;BME280;11492;42.646;23.400;2023-01-25T09:31:02;96118.66;;;3.67;74.88
22651;BME280;11492;42.646;23.400;2023-01-25T09:33:31;96109.75;;;3.72;75.39
22651;BME280;11492;42.646;23.400;2023-01-25T09:35:56;96116.72;;;3.70;75.25
22651;BME280;11492;42.646;23.400;2023-01-25T09:38:22;96095.84;;;3.76;74.49
22651;BME280;11492;42.646;23.400;2023-01-25T09:52:59;96088.00;;;4.00;71.66
22651;BME280;11492;42.646;23.400;2023-01-25T09:55:29;96073.97;;;4.06;71.37
22651;BME280;11492;42.646;23.400;2023-01-25T09:57:56;96066.53;;;4.14;71.49
22651;BME280;11492;42.646;23.400;2023-01-25T10:00:36;96069.47;;;4.09;71.24
22651;BME280;11492;42.646;23.400;2023-01-25T10:03:30;96057.38;;;4.11;71.74
22651;BME280;11492;42.646;23.400;2023-01-25T10:06:00;96057.16;;;4.14;71.53
22651;BME280;11492;42.646;23.400;2023-01-25T10:08:45;96062.28;;;4.25;70.85
22651;BME280;11492;42.646;23.400;2023-01-25T10:11:23;96052.53;;;4.30;70.69
22651;BME280;11492;42.646;23.400;2023-01-25T10:13:50;96047.88;;;4.35;69.92
22651;BME280;11492;42.646;23.400;2023-01-25T10:19:16;96036.72;;;4.47;68.36
22651;BME280;11492;42.646;23.400;2023-01-25T10:21:51;96031.34;;;4.39;68.24
22651;BME280;11492;42.646;23.400;2023-01-25T10:30:34;96020.88;;;4.63;67.90
22651;BME280;11492;42.646;23.400;2023-01-25T10:33:17;96031.34;;;4.71;67.70
22651;BME280;11492;42.646;23.400;2023-01-25T10:35:45;96020.53;;;4.68;66.16
22651;BME280;11492;42.646;23.400;2023-01-25T10:40:48;96013.66;;;4.68;65.97
22651;BME280;11492;42.646;23.400;2023-01-25T10:43:19;96007.72;;;4.68;66.59
22651;BME280;11492;42.646;23.400;2023-01-25T10:45:45;96002.50;;;4.69;66.07
22651;BME280;11492;42.646;23.400;2023-01-25T10:48:20;96007.03;;;4.76;67.25
22651;BME280;11492;42.646;23.400;2023-01-25T10:50:50;95995.97;;;4.76;65.79
22651;BME280;11492;42.646;23.400;2023-01-25T10:53:22;95997.03;;;4.73;65.53
22651;BME280;11492;42.646;23.400;2023-01-25T10:56:23;95989.81;;;4.78;65.35
22651;BME280;11492;42.646;23.400;2023-01-25T10:58:51;95974.91;;;4.83;65.48
22651;BME280;11492;42.646;23.400;2023-01-25T11:03:52;95974.03;;;5.04;65.03
22651;BME280;11492;42.646;23.400;2023-01-25T11:06:39;95966.50;;;5.23;64.38
22651;BME280;11492;42.646;23.400;2023-01-25T11:11:55;95969.19;;;5.42;63.97
22651;BME280;11492;42.646;23.400;2023-01-25T11:14:23;95967.34;;;5.53;63.00
22651;BME280;11492;42.646;23.400;2023-01-25T11:16:51;95964.69;;;5.54;62.59
22651;BME280;11492;42.646;23.400;2023-01-25T11:19:35;95963.75;;;5.55;62.75
22651;BME280;11492;42.646;23.400;2023-01-25T11:22:30;95958.94;;;5.42;62.21
22651;BME280;11492;42.646;23.400;2023-01-25T11:24:56;95955.50;;;5.32;61.89
22651;BME280;11492;42.646;23.400;2023-01-25T11:27:23;95953.50;;;5.15;63.16
22651;BME280;11492;42.646;23.400;2023-01-25T11:30:18;95949.25;;;5.25;62.61
22651;BME280;11492;42.646;23.400;2023-01-25T11:32:44;95951.63;;;5.17;63.97
22651;BME280;11492;42.646;23.400;2023-01-25T11:35:26;95950.22;;;5.24;63.02
22651;BME280;11492;42.646;23.400;2023-01-25T11:38:14;95941.22;;;5.29;63.41
22651;BME280;11492;42.646;23.400;2023-01-25T11:59:48;95907.59;;;5.43;62.22
22651;BME280;11492;42.646;23.400;2023-01-25T12:14:01;95891.78;;;5.09;63.52
22651;BME280;11492;42.646;23.400;2023-01-25T12:19:32;95887.25;;;5.01;63.86
22651;BME280;11492;42.646;23.400;2023-01-25T12:29:57;95887.25;;;5.01;63.85
22651;BME280;11492;42.646;23.400;2023-01-25T12:32:34;95881.84;;;4.95;63.98
22651;BME280;11492;42.646;23.400;2023-01-25T12:38:03;95883.56;;;4.74;63.90
22651;BME280;11492;42.646;23.400;2023-01-25T12:43:30;95879.25;;;4.75;64.58
22651;BME280;11492;42.646;23.400;2023-01-25T12:45:59;95877.81;;;4.62;65.05
22651;BME280;11492;42.646;23.400;2023-01-25T12:48:31;95879.00;;;4.58;63.95
22651;BME280;11492;42.646;23.400;2023-01-25T12:50:59;95873.38;;;4.64;64.29
22651;BME280;11492;42.646;23.400;2023-01-25T12:53:44;95873.25;;;4.65;65.09
22651;BME280;11492;42.646;23.400;2023-01-25T12:56:26;95872.34;;;4.66;65.75
22651;BME280;11492;42.646;23.400;2023-01-25T12:58:57;95872.91;;;4.70;64.23
22651;BME280;11492;42.646;23.400;2023-01-25T13:01:37;95874.91;;;4.66;64.80
22651;BME280;11492;42.646;23.400;2023-01-25T13:07:50;95857.00;;;4.66;64.50
22651;BME280;11492;42.646;23.400;2023-01-25T13:12:58;95861.69;;;4.61;64.19
22651;BME280;11492;42.646;23.400;2023-01-25T13:17:59;95853.44;;;4.58;64.48
22651;BME280;11492;42.646;23.400;2023-01-25T13:23:34;95839.78;;;4.68;65.02
22651;BME280;11492;42.646;23.400;2023-01-25T13:28:47;95851.13;;;4.75;64.12
22651;BME280;11492;42.646;23.400;2023-01-25T13:36:44;95855.13;;;4.68;64.36
22651;BME280;11492;42.646;23.400;2023-01-25T13:42:03;95851.94;;;4.55;64.50
22651;BME280;11492;42.646;23.400;2023-01-25T13:44:32;95854.28;;;4.47;65.10
22651;BME280;11492;42.646;23.400;2023-01-25T13:47:02;95852.53;;;4.48;64.52
22651;BME280;11492;42.646;23.400;2023-01-25T13:49:40;95858.16;;;4.42;65.46
22651;BME280;11492;42.646;23.400;2023-01-25T13:52:07;95861.06;;;4.38;65.75
22651;BME280;11492;42.646;23.400;2023-01-25T13:54:32;95856.53;;;4.41;65.07
22651;BME280;11492;42.646;23.400;2023-01-25T13:57:05;95854.78;;;4.42;65.24
22651;BME280;11492;42.646;23.400;2023-01-25T13:59:31;95856.31;;;4.33;65.62
22651;BME280;11492;42.646;23.400;2023-01-25T14:01:58;95860.88;;;4.30;66.17
22651;BME280;11492;42.646;23.400;2023-01-25T14:04:26;95857.38;;;4.31;66.07
22651;BME280;11492;42.646;23.400;2023-01-25T14:06:56;95865.59;;;4.34;66.30
22651;BME280;11492;42.646;23.400;2023-01-25T14:09:23;95855.50;;;4.33;65.76
22651;BME280;11492;42.646;23.400;2023-01-25T14:11:57;95856.91;;;4.26;66.71
22651;BME280;11492;42.646;23.400;2023-01-25T14:14:30;95855.63;;;4.31;66.75
22651;BME280;11492;42.646;23.400;2023-01-25T14:19:36;95860.59;;;4.33;65.50
22651;BME280;11492;42.646;23.400;2023-01-25T14:22:22;95854.16;;;4.18;66.08
22651;BME280;11492;42.646;23.400;2023-01-25T14:25:10;95853.19;;;4.19;65.89
22651;BME280;11492;42.646;23.400;2023-01-25T14:27:54;95848.81;;;4.21;66.32
22651;BME280;11492;42.646;23.400;2023-01-25T14:30:28;95847.41;;;4.17;66.01
22651;BME280;11492;42.646;23.400;2023-01-25T14:32:57;95839.88;;;4.16;65.87
22651;BME280;11492;42.646;23.400;2023-01-25T14:37:51;95837.03;;;3.98;66.54
22651;BME280;11492;42.646;23.400;2023-01-25T14:40:19;95831.09;;;3.98;67.08
22651;BME280;11492;42.646;23.400;2023-01-25T14:42:47;95835.16;;;4.00;66.97
22651;BME280;11492;42.646;23.400;2023-01-25T14:45:13;95837.13;;;3.97;67.62
22651;BME280;11492;42.646;23.400;2023-01-25T14:47:39;95838.75;;;3.98;66.65
22651;BME280;11492;42.646;23.400;2023-01-25T14:50:30;95845.97;;;3.93;66.52
22651;BME280;11492;42.646;23.400;2023-01-25T14:52:56;95835.41;;;3.87;67.07